sensor_id;sensor_type;location;lat;lon;timestamp;pressure;altitude;pressure_sealevel;temperature;humidity
216;BME280;64590;48.81286795;9.14184224;2023-02-20T00:01:50;99387.28;;;9.23;71.37
216;BME280;64590;48.81286795;9.14184224;2023-02-20T00:04:19;99377.13;;;9.46;70.40
216;BME280;64590;48.81286795;9.14184224;2023-02-20T00:06:46;99380.38;;;9.32;71.23
216;BME280;64590;48.81286795;9.14184224;2023-02-20T00:09:13;99382.78;;;9.34;70.79
216;BME280;64590;48.81286795;9.14184224;2023-02-20T00:11:41;99377.00;;;9.23;71.08
216;BME280;64590;48.81286795;9.14184224;2023-02-20T00:14:08;99381.91;;;9.30;71.20
216;BME280;64590;48.81286795;9.14184224;2023-02-20T00:16:34;99379.47;;;9.44;70.68
216;BME280;64590;48.81286795;9.14184224;2023-02-20T00:19:01;99372.69;;;9.26;71.21
216;BME280;64590;48.81286795;9.14184224;2023-02-20T00:21:29;99373.84;;;9.41;70.89
216;BME280;64590;48.81286795;9.14184224;2023-02-20T00:23:55;99369.31;;;9.32;71.02
216;BME280;64590;48.81286795;9.14184224;2023-02-20T00:26:22;99372.44;;;9.31;71.75
216;BME280;64590;48.81286795;9.14184224;2023-02-20T00:28:49;99374.84;;;9.32;70.84
216;BME280;64590;48.81286795;9.14184224;2023-02-20T00:31:16;99367.50;;;9.24;70.84
216;BME280;64590;48.81286795;9.14184224;2023-02-20T00:33:44;99371.88;;;9.25;70.48
216;BME280;64590;48.81286795;9.14184224;2023-02-20T00:36:14;99366.53;;;9.17;70.56
216;BME280;64590;48.81286795;9.14184224;2023-02-20T00:38:42;99379.94;;;9.15;70.68
216;BME280;64590;48.81286795;9.14184224;2023-02-20T00:41:10;99389.50;;;9.17;70.65
216;BME280;64590;48.81286795;9.14184224;2023-02-20T00:43:39;99399.16;;;9.07;70.79
216;BME280;64590;48.81286795;9.14184224;2023-02-20T00:46:05;99403.34;;;9.17;70.89
216;BME280;64590;48.81286795;9.14184224;2023-02-20T00:48:32;99404.44;;;9.13;70.49
216;BME280;64590;48.81286795;9.14184224;2023-02-20T00:51:17;99397.38;;;9.15;70.63
216;BME280;64590;48.81286795;9.14184224;2023-02-20T00:53:45;99407.66;;;9.30;70.22
216;BME280;64590;48.81286795;9.14184224;2023-02-20T00:56:12;99407.53;;;9.11;70.68
216;BME280;64590;48.81286795;9.14184224;2023-02-20T00:58:39;99404.69;;;9.23;70.19
216;BME280;64590;48.81286795;9.14184224;2023-02-20T01:01:05;99397.00;;;9.32;69.91
216;BME280;64590;48.81286795;9.14184224;2023-02-20T01:03:32;99398.41;;;9.11;70.47
216;BME280;64590;48.81286795;9.14184224;2023-02-20T01:05:59;99393.59;;;9.07;71.18
216;BME280;64590;48.81286795;9.14184224;2023-02-20T01:08:27;99395.72;;;8.83;71.92
216;BME280;64590;48.81286795;9.14184224;2023-02-20T01:10:56;99398.69;;;8.90;71.79
216;BME280;64590;48.81286795;9.14184224;2023-02-20T01:13:24;99406.31;;;8.65;71.57
216;BME280;64590;48.81286795;9.14184224;2023-02-20T01:15:51;99412.69;;;8.81;71.26
216;BME280;64590;48.81286795;9.14184224;2023-02-20T01:18:17;99403.38;;;8.73;70.97
216;BME280;64590;48.81286795;9.14184224;2023-02-20T01:20:44;99396.16;;;8.69;71.18
216;BME280;64590;48.81286795;9.14184224;2023-02-20T01:23:11;99383.66;;;8.75;70.72
216;BME280;64590;48.81286795;9.14184224;2023-02-20T01:25:37;99389.97;;;8.60;71.63
216;BME280;64590;48.81286795;9.14184224;2023-02-20T01:28:05;99386.34;;;8.71;70.76
216;BME280;64590;48.81286795;9.14184224;2023-02-20T01:30:32;99387.38;;;8.67;70.91
216;BME280;64590;48.81286795;9.14184224;2023-02-20T01:32:58;99389.88;;;8.56;71.36
216;BME280;64590;48.81286795;9.14184224;2023-02-20T01:35:25;99393.19;;;8.62;70.96
216;BME280;64590;48.81286795;9.14184224;2023-02-20T01:37:55;99385.28;;;8.48;71.38
216;BME280;64590;48.81286795;9.14184224;2023-02-20T01:40:22;99381.88;;;8.39;71.72
216;BME280;64590;48.81286795;9.14184224;2023-02-20T01:42:49;99378.16;;;8.47;71.30
216;BME280;64590;48.81286795;9.14184224;2023-02-20T01:45:27;99375.53;;;8.38;71.38
216;BME280;64590;48.81286795;9.14184224;2023-02-20T01:47:55;99378.88;;;8.44;70.92
216;BME280;64590;48.81286795;9.14184224;2023-02-20T01:50:24;99370.22;;;8.45;70.70
216;BME280;64590;48.81286795;9.14184224;2023-02-20T01:52:55;99365.63;;;8.37;70.88
216;BME280;64590;48.81286795;9.14184224;2023-02-20T01:55:26;99368.97;;;8.31;71.30
216;BME280;64590;48.81286795;9.14184224;2023-02-20T01:57:57;99366.78;;;8.36;71.07
216;BME280;64590;48.81286795;9.14184224;2023-02-20T02:00:26;99362.88;;;8.25;71.08
216;BME280;64590;48.81286795;9.14184224;2023-02-20T02:02:58;99358.03;;;8.34;71.32
216;BME280;64590;48.81286795;9.14184224;2023-02-20T02:05:27;99361.91;;;8.33;70.86
216;BME280;64590;48.81286795;9.14184224;2023-02-20T02:07:55;99368.25;;;8.46;70.61
216;BME280;64590;48.81286795;9.14184224;2023-02-20T02:10:24;99358.72;;;8.31;71.41
216;BME280;64590;48.81286795;9.14184224;2023-02-20T02:12:56;99357.47;;;8.29;71.14
216;BME280;64590;48.81286795;9.14184224;2023-02-20T02:15:24;99364.84;;;8.25;71.39
216;BME280;64590;48.81286795;9.14184224;2023-02-20T02:18:16;99365.41;;;8.30;71.16
216;BME280;64590;48.81286795;9.14184224;2023-02-20T02:21:25;99359.22;;;8.21;72.04
216;BME280;64590;48.81286795;9.14184224;2023-02-20T02:24:18;99352.78;;;8.17;72.09
216;BME280;64590;48.81286795;9.14184224;2023-02-20T02:27:16;99357.69;;;8.23;71.46
216;BME280;64590;48.81286795;9.14184224;2023-02-20T02:30:12;99347.44;;;8.24;71.98
216;BME280;64590;48.81286795;9.14184224;2023-02-20T02:32:59;99348.88;;;8.34;71.58
216;BME280;64590;48.81286795;9.14184224;2023-02-20T02:38:44;99355.22;;;8.46;70.99
216;BME280;64590;48.81286795;9.14184224;2023-02-20T02:41:18;99355.06;;;8.55;70.44
216;BME280;64590;48.81286795;9.14184224;2023-02-20T02:43:50;99358.91;;;8.66;70.20
216;BME280;64590;48.81286795;9.14184224;2023-02-20T02:46:23;99350.97;;;8.65;69.75
216;BME280;64590;48.81286795;9.14184224;2023-02-20T02:48:57;99359.06;;;8.58;70.34
216;BME280;64590;48.81286795;9.14184224;2023-02-20T02:51:29;99342.28;;;8.66;69.66
216;BME280;64590;48.81286795;9.14184224;2023-02-20T02:54:08;99348.44;;;8.60;70.28
216;BME280;64590;48.81286795;9.14184224;2023-02-20T02:56:36;99334.88;;;8.55;70.26
216;BME280;64590;48.81286795;9.14184224;2023-02-20T02:59:04;99338.53;;;8.43;70.62
216;BME280;64590;48.81286795;9.14184224;2023-02-20T03:01:35;99333.31;;;8.41;70.68
216;BME280;64590;48.81286795;9.14184224;2023-02-20T03:04:05;99333.97;;;8.35;70.78
216;BME280;64590;48.81286795;9.14184224;2023-02-20T03:06:35;99331.91;;;8.19;71.97
216;BME280;64590;48.81286795;9.14184224;2023-02-20T03:09:07;99340.66;;;8.21;71.64
216;BME280;64590;48.81286795;9.14184224;2023-02-20T03:11:37;99332.50;;;8.13;71.69
216;BME280;64590;48.81286795;9.14184224;2023-02-20T03:14:09;99335.06;;;8.34;71.48
216;BME280;64590;48.81286795;9.14184224;2023-02-20T03:16:59;99338.50;;;8.15;71.64
216;BME280;64590;48.81286795;9.14184224;2023-02-20T03:19:32;99336.53;;;8.15;71.39
216;BME280;64590;48.81286795;9.14184224;2023-02-20T03:22:00;99343.28;;;7.90;72.73
216;BME280;64590;48.81286795;9.14184224;2023-02-20T03:24:31;99340.06;;;8.00;72.54
216;BME280;64590;48.81286795;9.14184224;2023-02-20T03:27:22;99339.22;;;8.12;71.88
216;BME280;64590;48.81286795;9.14184224;2023-02-20T03:29:53;99337.38;;;8.04;71.89
216;BME280;64590;48.81286795;9.14184224;2023-02-20T03:32:22;99333.63;;;7.96;72.26
216;BME280;64590;48.81286795;9.14184224;2023-02-20T03:35:08;99326.41;;;7.79;72.75
216;BME280;64590;48.81286795;9.14184224;2023-02-20T03:37:54;99337.47;;;7.79;73.19
216;BME280;64590;48.81286795;9.14184224;2023-02-20T03:40:40;99343.34;;;7.78;73.14
216;BME280;64590;48.81286795;9.14184224;2023-02-20T03:43:26;99349.03;;;7.97;72.77
216;BME280;64590;48.81286795;9.14184224;2023-02-20T03:45:59;99338.53;;;8.31;71.91
216;BME280;64590;48.81286795;9.14184224;2023-02-20T03:48:33;99333.38;;;8.29;71.29
216;BME280;64590;48.81286795;9.14184224;2023-02-20T03:51:02;99338.09;;;8.29;71.63
216;BME280;64590;48.81286795;9.14184224;2023-02-20T03:53:46;99341.81;;;8.20;71.78
216;BME280;64590;48.81286795;9.14184224;2023-02-20T03:56:18;99338.25;;;8.20;71.51
216;BME280;64590;48.81286795;9.14184224;2023-02-20T03:58:49;99344.81;;;8.15;72.29
216;BME280;64590;48.81286795;9.14184224;2023-02-20T04:01:19;99346.44;;;8.16;72.08
216;BME280;64590;48.81286795;9.14184224;2023-02-20T04:03:48;99338.28;;;8.08;71.84
216;BME280;64590;48.81286795;9.14184224;2023-02-20T04:06:17;99329.19;;;8.07;72.28
216;BME280;64590;48.81286795;9.14184224;2023-02-20T04:08:51;99336.13;;;8.01;71.92
216;BME280;64590;48.81286795;9.14184224;2023-02-20T04:11:23;99327.56;;;8.06;71.51
216;BME280;64590;48.81286795;9.14184224;2023-02-20T04:13:53;99330.13;;;7.99;71.93
216;BME280;64590;48.81286795;9.14184224;2023-02-20T04:16:21;99322.00;;;7.90;71.96
216;BME280;64590;48.81286795;9.14184224;2023-02-20T04:18:49;99318.09;;;7.91;72.29
216;BME280;64590;48.81286795;9.14184224;2023-02-20T04:21:19;99311.63;;;7.87;71.77
216;BME280;64590;48.81286795;9.14184224;2023-02-20T04:23:51;99305.50;;;7.66;72.58
216;BME280;64590;48.81286795;9.14184224;2023-02-20T04:26:24;99314.50;;;7.51;72.61
216;BME280;64590;48.81286795;9.14184224;2023-02-20T04:28:50;99307.75;;;7.12;74.17
216;BME280;64590;48.81286795;9.14184224;2023-02-20T04:31:19;99317.88;;;7.20;73.85
216;BME280;64590;48.81286795;9.14184224;2023-02-20T04:33:47;99309.00;;;7.26;73.66
216;BME280;64590;48.81286795;9.14184224;2023-02-20T04:36:22;99307.53;;;7.17;73.39
216;BME280;64590;48.81286795;9.14184224;2023-02-20T04:38:50;99313.38;;;7.03;73.85
216;BME280;64590;48.81286795;9.14184224;2023-02-20T04:41:23;99311.22;;;6.96;74.12
216;BME280;64590;48.81286795;9.14184224;2023-02-20T04:43:50;99297.75;;;6.83;74.50
216;BME280;64590;48.81286795;9.14184224;2023-02-20T04:46:38;99318.31;;;6.85;74.33
216;BME280;64590;48.81286795;9.14184224;2023-02-20T04:49:04;99320.03;;;6.77;74.70
216;BME280;64590;48.81286795;9.14184224;2023-02-20T04:51:31;99324.31;;;6.75;74.63
216;BME280;64590;48.81286795;9.14184224;2023-02-20T04:53:57;99319.25;;;6.77;75.41
216;BME280;64590;48.81286795;9.14184224;2023-02-20T04:56:25;99331.88;;;6.66;75.68
216;BME280;64590;48.81286795;9.14184224;2023-02-20T04:58:53;99333.28;;;6.72;75.48
216;BME280;64590;48.81286795;9.14184224;2023-02-20T05:01:21;99327.97;;;6.67;75.40
216;BME280;64590;48.81286795;9.14184224;2023-02-20T05:03:48;99327.25;;;6.58;75.92
216;BME280;64590;48.81286795;9.14184224;2023-02-20T05:06:14;99329.91;;;6.66;75.26
216;BME280;64590;48.81286795;9.14184224;2023-02-20T05:08:41;99328.50;;;6.48;75.69
216;BME280;64590;48.81286795;9.14184224;2023-02-20T05:11:07;99321.41;;;6.59;75.29
216;BME280;64590;48.81286795;9.14184224;2023-02-20T05:13:35;99321.28;;;6.43;75.76
216;BME280;64590;48.81286795;9.14184224;2023-02-20T05:16:02;99321.38;;;6.47;75.61
216;BME280;64590;48.81286795;9.14184224;2023-02-20T05:18:29;99324.31;;;6.30;76.05
216;BME280;64590;48.81286795;9.14184224;2023-02-20T05:20:56;99328.41;;;6.44;75.91
216;BME280;64590;48.81286795;9.14184224;2023-02-20T05:23:40;99320.84;;;6.20;76.49
216;BME280;64590;48.81286795;9.14184224;2023-02-20T05:26:08;99321.09;;;6.28;76.39
216;BME280;64590;48.81286795;9.14184224;2023-02-20T05:28:36;99325.56;;;6.20;75.81
216;BME280;64590;48.81286795;9.14184224;2023-02-20T05:31:04;99321.66;;;6.21;76.00
216;BME280;64590;48.81286795;9.14184224;2023-02-20T05:33:31;99313.72;;;6.19;76.32
216;BME280;64590;48.81286795;9.14184224;2023-02-20T05:35:58;99315.13;;;6.26;75.62
216;BME280;64590;48.81286795;9.14184224;2023-02-20T05:38:25;99327.53;;;5.99;76.17
216;BME280;64590;48.81286795;9.14184224;2023-02-20T05:40:51;99315.44;;;5.70;77.39
216;BME280;64590;48.81286795;9.14184224;2023-02-20T05:43:18;99319.78;;;5.71;77.63
216;BME280;64590;48.81286795;9.14184224;2023-02-20T05:45:46;99316.31;;;5.83;76.72
216;BME280;64590;48.81286795;9.14184224;2023-02-20T05:48:13;99323.16;;;5.98;76.50
216;BME280;64590;48.81286795;9.14184224;2023-02-20T05:50:40;99325.00;;;5.93;76.36
216;BME280;64590;48.81286795;9.14184224;2023-02-20T05:53:15;99322.47;;;5.80;77.04
216;BME280;64590;48.81286795;9.14184224;2023-02-20T05:55:42;99321.34;;;6.02;75.96
216;BME280;64590;48.81286795;9.14184224;2023-02-20T05:58:09;99321.31;;;5.81;76.68
216;BME280;64590;48.81286795;9.14184224;2023-02-20T06:00:35;99324.66;;;5.74;77.43
216;BME280;64590;48.81286795;9.14184224;2023-02-20T06:03:06;99317.66;;;5.77;76.76
216;BME280;64590;48.81286795;9.14184224;2023-02-20T06:05:34;99318.22;;;5.91;76.38
216;BME280;64590;48.81286795;9.14184224;2023-02-20T06:08:01;99311.00;;;5.78;76.60
216;BME280;64590;48.81286795;9.14184224;2023-02-20T06:10:27;99316.50;;;5.78;76.59
216;BME280;64590;48.81286795;9.14184224;2023-02-20T06:12:54;99320.00;;;5.87;76.16
216;BME280;64590;48.81286795;9.14184224;2023-02-20T06:15:20;99322.25;;;5.93;75.82
216;BME280;64590;48.81286795;9.14184224;2023-02-20T06:17:47;99327.75;;;5.93;75.87
216;BME280;64590;48.81286795;9.14184224;2023-02-20T06:20:15;99321.94;;;5.86;76.57
216;BME280;64590;48.81286795;9.14184224;2023-02-20T06:22:42;99327.19;;;5.79;76.72
216;BME280;64590;48.81286795;9.14184224;2023-02-20T06:25:08;99327.41;;;5.74;77.43
216;BME280;64590;48.81286795;9.14184224;2023-02-20T06:27:37;99326.94;;;5.93;76.87
216;BME280;64590;48.81286795;9.14184224;2023-02-20T06:30:04;99325.09;;;5.55;77.74
216;BME280;64590;48.81286795;9.14184224;2023-02-20T06:32:31;99323.06;;;5.64;77.83
216;BME280;64590;48.81286795;9.14184224;2023-02-20T06:34:57;99325.09;;;5.76;77.57
216;BME280;64590;48.81286795;9.14184224;2023-02-20T06:37:25;99322.41;;;5.88;77.67
216;BME280;64590;48.81286795;9.14184224;2023-02-20T06:39:52;99327.41;;;5.95;76.85
216;BME280;64590;48.81286795;9.14184224;2023-02-20T06:42:18;99337.06;;;5.80;77.56
216;BME280;64590;48.81286795;9.14184224;2023-02-20T06:44:45;99339.69;;;5.77;77.58
216;BME280;64590;48.81286795;9.14184224;2023-02-20T06:47:11;99349.44;;;5.95;77.17
216;BME280;64590;48.81286795;9.14184224;2023-02-20T06:49:38;99343.81;;;5.91;77.21
216;BME280;64590;48.81286795;9.14184224;2023-02-20T06:52:06;99347.88;;;6.06;77.21
216;BME280;64590;48.81286795;9.14184224;2023-02-20T06:54:35;99343.91;;;6.16;76.81
216;BME280;64590;48.81286795;9.14184224;2023-02-20T06:57:02;99349.91;;;5.97;76.88
216;BME280;64590;48.81286795;9.14184224;2023-02-20T06:59:29;99355.63;;;6.13;76.93
216;BME280;64590;48.81286795;9.14184224;2023-02-20T07:01:55;99350.03;;;6.21;76.15
216;BME280;64590;48.81286795;9.14184224;2023-02-20T07:04:24;99362.41;;;6.15;76.94
216;BME280;64590;48.81286795;9.14184224;2023-02-20T07:06:51;99360.06;;;6.05;77.53
216;BME280;64590;48.81286795;9.14184224;2023-02-20T07:09:18;99355.63;;;6.13;77.09
216;BME280;64590;48.81286795;9.14184224;2023-02-20T07:11:46;99357.84;;;6.19;77.18
216;BME280;64590;48.81286795;9.14184224;2023-02-20T07:14:15;99357.03;;;6.52;76.26
216;BME280;64590;48.81286795;9.14184224;2023-02-20T07:16:41;99356.00;;;6.57;76.75
216;BME280;64590;48.81286795;9.14184224;2023-02-20T07:19:08;99353.84;;;6.74;76.52
216;BME280;64590;48.81286795;9.14184224;2023-02-20T07:21:34;99356.59;;;6.74;75.84
216;BME280;64590;48.81286795;9.14184224;2023-02-20T07:24:01;99362.13;;;6.74;76.39
216;BME280;64590;48.81286795;9.14184224;2023-02-20T07:26:29;99357.09;;;6.89;76.09
216;BME280;64590;48.81286795;9.14184224;2023-02-20T07:28:57;99353.78;;;7.07;75.43
216;BME280;64590;48.81286795;9.14184224;2023-02-20T07:31:25;99361.72;;;7.33;74.12
216;BME280;64590;48.81286795;9.14184224;2023-02-20T07:33:51;99345.81;;;7.43;73.62
216;BME280;64590;48.81286795;9.14184224;2023-02-20T07:36:18;99353.16;;;7.63;72.69
216;BME280;64590;48.81286795;9.14184224;2023-02-20T07:38:52;99355.16;;;7.50;73.06
216;BME280;64590;48.81286795;9.14184224;2023-02-20T07:41:19;99354.75;;;7.64;72.75
216;BME280;64590;48.81286795;9.14184224;2023-02-20T07:43:45;99358.22;;;7.73;72.49
216;BME280;64590;48.81286795;9.14184224;2023-02-20T07:46:13;99353.81;;;7.84;72.08
216;BME280;64590;48.81286795;9.14184224;2023-02-20T07:48:40;99348.69;;;7.99;71.43
216;BME280;64590;48.81286795;9.14184224;2023-02-20T07:51:06;99354.47;;;7.93;71.94
216;BME280;64590;48.81286795;9.14184224;2023-02-20T07:53:33;99351.28;;;8.19;70.68
216;BME280;64590;48.81286795;9.14184224;2023-02-20T07:55:59;99347.78;;;8.22;70.96
216;BME280;64590;48.81286795;9.14184224;2023-02-20T07:58:26;99341.91;;;8.24;70.82
216;BME280;64590;48.81286795;9.14184224;2023-02-20T08:00:53;99345.31;;;8.45;69.14
216;BME280;64590;48.81286795;9.14184224;2023-02-20T08:03:21;99352.03;;;8.60;68.51
216;BME280;64590;48.81286795;9.14184224;2023-02-20T08:05:47;99348.16;;;8.49;69.54
216;BME280;64590;48.81286795;9.14184224;2023-02-20T08:08:14;99345.75;;;8.47;69.82
216;BME280;64590;48.81286795;9.14184224;2023-02-20T08:10:40;99342.19;;;8.47;70.39
216;BME280;64590;48.81286795;9.14184224;2023-02-20T08:13:07;99340.00;;;8.84;67.82
216;BME280;64590;48.81286795;9.14184224;2023-02-20T08:15:33;99328.28;;;8.75;68.42
216;BME280;64590;48.81286795;9.14184224;2023-02-20T08:18:00;99326.69;;;8.74;68.62
216;BME280;64590;48.81286795;9.14184224;2023-02-20T08:20:28;99323.75;;;8.83;68.33
216;BME280;64590;48.81286795;9.14184224;2023-02-20T08:22:55;99328.03;;;8.96;67.79
216;BME280;64590;48.81286795;9.14184224;2023-02-20T08:25:21;99319.00;;;9.15;66.86
216;BME280;64590;48.81286795;9.14184224;2023-02-20T08:27:48;99325.66;;;9.29;65.93
216;BME280;64590;48.81286795;9.14184224;2023-02-20T08:30:19;99324.88;;;9.29;65.85
216;BME280;64590;48.81286795;9.14184224;2023-02-20T08:32:49;99335.25;;;9.32;66.31
216;BME280;64590;48.81286795;9.14184224;2023-02-20T08:35:15;99321.75;;;9.30;66.13
216;BME280;64590;48.81286795;9.14184224;2023-02-20T08:37:43;99321.59;;;9.23;65.98
216;BME280;64590;48.81286795;9.14184224;2023-02-20T08:40:10;99330.69;;;9.40;65.12
216;BME280;64590;48.81286795;9.14184224;2023-02-20T08:42:37;99315.22;;;9.39;66.09
216;BME280;64590;48.81286795;9.14184224;2023-02-20T08:45:05;99323.91;;;9.21;66.15
216;BME280;64590;48.81286795;9.14184224;2023-02-20T08:47:32;99327.38;;;9.34;65.41
216;BME280;64590;48.81286795;9.14184224;2023-02-20T08:49:59;99316.63;;;9.48;65.26
216;BME280;64590;48.81286795;9.14184224;2023-02-20T08:52:26;99325.03;;;9.71;64.64
216;BME280;64590;48.81286795;9.14184224;2023-02-20T08:54:54;99328.94;;;9.86;63.01
216;BME280;64590;48.81286795;9.14184224;2023-02-20T08:57:20;99322.53;;;9.82;62.72
216;BME280;64590;48.81286795;9.14184224;2023-02-20T08:59:47;99319.75;;;9.82;62.00
216;BME280;64590;48.81286795;9.14184224;2023-02-20T09:02:15;99315.72;;;9.79;62.70
216;BME280;64590;48.81286795;9.14184224;2023-02-20T09:04:42;99322.38;;;9.94;62.54
216;BME280;64590;48.81286795;9.14184224;2023-02-20T09:07:10;99313.84;;;9.83;62.78
216;BME280;64590;48.81286795;9.14184224;2023-02-20T09:09:36;99310.84;;;9.92;62.97
216;BME280;64590;48.81286795;9.14184224;2023-02-20T09:12:05;99308.66;;;10.20;61.50
216;BME280;64590;48.81286795;9.14184224;2023-02-20T09:14:32;99303.25;;;10.08;61.71
216;BME280;64590;48.81286795;9.14184224;2023-02-20T09:16:59;99350.91;;;10.72;60.58
216;BME280;64590;48.81286795;9.14184224;2023-02-20T09:19:25;99298.06;;;10.68;59.52
216;BME280;64590;48.81286795;9.14184224;2023-02-20T09:21:52;99293.06;;;10.55;59.05
216;BME280;64590;48.81286795;9.14184224;2023-02-20T09:24:18;99294.25;;;10.54;59.30
216;BME280;64590;48.81286795;9.14184224;2023-02-20T09:26:45;99285.78;;;10.46;59.61
216;BME280;64590;48.81286795;9.14184224;2023-02-20T09:29:13;99283.00;;;10.92;57.83
216;BME280;64590;48.81286795;9.14184224;2023-02-20T09:31:39;99284.72;;;11.00;57.75
216;BME280;64590;48.81286795;9.14184224;2023-02-20T09:34:06;99279.00;;;10.90;57.89
216;BME280;64590;48.81286795;9.14184224;2023-02-20T09:36:32;99288.38;;;10.82;58.21
216;BME280;64590;48.81286795;9.14184224;2023-02-20T09:38:59;99285.84;;;10.96;57.07
216;BME280;64590;48.81286795;9.14184224;2023-02-20T09:41:34;99274.47;;;11.04;57.67
216;BME280;64590;48.81286795;9.14184224;2023-02-20T09:44:08;99275.56;;;11.00;57.86
216;BME280;64590;48.81286795;9.14184224;2023-02-20T09:46:38;99271.44;;;11.13;57.63
216;BME280;64590;48.81286795;9.14184224;2023-02-20T09:49:11;99282.19;;;10.92;58.03
216;BME280;64590;48.81286795;9.14184224;2023-02-20T09:51:42;99276.06;;;11.06;57.89
216;BME280;64590;48.81286795;9.14184224;2023-02-20T09:54:12;99272.69;;;11.19;57.20
216;BME280;64590;48.81286795;9.14184224;2023-02-20T09:56:43;99277.34;;;11.12;57.34
216;BME280;64590;48.81286795;9.14184224;2023-02-20T09:59:15;99281.50;;;10.98;57.65
216;BME280;64590;48.81286795;9.14184224;2023-02-20T10:01:51;99270.78;;;10.97;58.50
216;BME280;64590;48.81286795;9.14184224;2023-02-20T10:04:21;99263.28;;;11.01;57.70
216;BME280;64590;48.81286795;9.14184224;2023-02-20T10:06:49;99264.56;;;10.81;58.30
216;BME280;64590;48.81286795;9.14184224;2023-02-20T10:09:17;99263.25;;;10.74;58.95
216;BME280;64590;48.81286795;9.14184224;2023-02-20T10:11:52;99259.09;;;10.61;59.16
216;BME280;64590;48.81286795;9.14184224;2023-02-20T10:14:32;99254.38;;;10.65;59.17
216;BME280;64590;48.81286795;9.14184224;2023-02-20T10:17:11;99251.81;;;10.53;59.33
216;BME280;64590;48.81286795;9.14184224;2023-02-20T10:19:48;99253.41;;;10.54;59.50
216;BME280;64590;48.81286795;9.14184224;2023-02-20T10:22:19;99253.56;;;10.42;60.11
216;BME280;64590;48.81286795;9.14184224;2023-02-20T10:24:54;99250.00;;;10.64;60.00
216;BME280;64590;48.81286795;9.14184224;2023-02-20T10:27:30;99246.69;;;11.04;58.65
216;BME280;64590;48.81286795;9.14184224;2023-02-20T10:30:02;99247.25;;;10.91;58.70
216;BME280;64590;48.81286795;9.14184224;2023-02-20T10:32:37;99250.16;;;10.98;58.04
216;BME280;64590;48.81286795;9.14184224;2023-02-20T10:35:09;99244.72;;;11.05;58.09
216;BME280;64590;48.81286795;9.14184224;2023-02-20T10:37:39;99251.66;;;11.18;58.17
216;BME280;64590;48.81286795;9.14184224;2023-02-20T10:40:15;99242.25;;;11.26;57.77
216;BME280;64590;48.81286795;9.14184224;2023-02-20T10:42:47;99240.91;;;11.17;58.15
216;BME280;64590;48.81286795;9.14184224;2023-02-20T10:45:23;99239.16;;;11.31;57.68
216;BME280;64590;48.81286795;9.14184224;2023-02-20T10:47:57;99243.09;;;11.30;57.58
216;BME280;64590;48.81286795;9.14184224;2023-02-20T10:50:30;99242.84;;;11.39;57.41
216;BME280;64590;48.81286795;9.14184224;2023-02-20T10:53:03;99235.50;;;11.27;57.90
216;BME280;64590;48.81286795;9.14184224;2023-02-20T10:55:38;99226.06;;;11.32;58.11
216;BME280;64590;48.81286795;9.14184224;2023-02-20T10:58:10;99223.31;;;11.66;55.95
216;BME280;64590;48.81286795;9.14184224;2023-02-20T11:00:40;99225.25;;;11.61;56.95
216;BME280;64590;48.81286795;9.14184224;2023-02-20T11:03:14;99223.72;;;11.64;56.46
216;BME280;64590;48.81286795;9.14184224;2023-02-20T11:05:46;99230.94;;;11.72;56.80
216;BME280;64590;48.81286795;9.14184224;2023-02-20T11:08:15;99222.78;;;11.86;55.42
216;BME280;64590;48.81286795;9.14184224;2023-02-20T11:10:45;99221.41;;;12.03;54.36
216;BME280;64590;48.81286795;9.14184224;2023-02-20T11:13:15;99207.38;;;11.93;55.11
216;BME280;64590;48.81286795;9.14184224;2023-02-20T11:15:44;99209.19;;;12.15;54.38
216;BME280;64590;48.81286795;9.14184224;2023-02-20T11:18:21;99204.81;;;12.14;54.04
216;BME280;64590;48.81286795;9.14184224;2023-02-20T11:20:51;99210.38;;;12.14;54.15
216;BME280;64590;48.81286795;9.14184224;2023-02-20T11:23:39;99196.84;;;12.12;54.57
216;BME280;64590;48.81286795;9.14184224;2023-02-20T11:26:25;99199.03;;;12.33;54.27
216;BME280;64590;48.81286795;9.14184224;2023-02-20T11:28:56;99194.88;;;12.57;52.98
216;BME280;64590;48.81286795;9.14184224;2023-02-20T11:31:23;99187.91;;;12.81;52.58
216;BME280;64590;48.81286795;9.14184224;2023-02-20T11:33:53;99186.75;;;12.86;52.52
216;BME280;64590;48.81286795;9.14184224;2023-02-20T11:36:23;99182.81;;;12.94;52.23
216;BME280;64590;48.81286795;9.14184224;2023-02-20T11:38:56;99181.00;;;12.61;52.48
216;BME280;64590;48.81286795;9.14184224;2023-02-20T11:41:26;99175.06;;;12.66;52.44
216;BME280;64590;48.81286795;9.14184224;2023-02-20T11:44:16;99174.84;;;12.92;52.97
216;BME280;64590;48.81286795;9.14184224;2023-02-20T11:46:43;99170.44;;;12.88;51.98
216;BME280;64590;48.81286795;9.14184224;2023-02-20T11:49:24;99155.44;;;13.03;51.25
216;BME280;64590;48.81286795;9.14184224;2023-02-20T11:51:51;99159.59;;;13.31;51.32
216;BME280;64590;48.81286795;9.14184224;2023-02-20T11:54:20;99151.22;;;13.38;51.19
216;BME280;64590;48.81286795;9.14184224;2023-02-20T11:56:55;99144.44;;;13.35;50.94
216;BME280;64590;48.81286795;9.14184224;2023-02-20T11:59:30;99147.34;;;13.56;51.26
216;BME280;64590;48.81286795;9.14184224;2023-02-20T12:02:21;99135.88;;;13.94;49.35
216;BME280;64590;48.81286795;9.14184224;2023-02-20T12:05:11;99136.69;;;13.98;48.32
216;BME280;64590;48.81286795;9.14184224;2023-02-20T12:07:41;99133.13;;;14.01;49.43
216;BME280;64590;48.81286795;9.14184224;2023-02-20T12:10:34;99117.16;;;14.23;48.59